Bahia Uno — ECFT — position and weather

sailwx.info

Track history (hours):
 
Tides and Currents Weather Stations Pressure Air Temp Water Temp Dewpoint Dewpoint Depression Visibility Wind Speed Wind Dir Waves Ship Positions

Bahia Uno

Last reported at 2016-Jul-25 04:33 UTC. Time now 2016-Jul-25 08:08 UTC.
Position N 36°10' W 005°24'.

Length 70 m; draft 5.5 m.

Type: Ship. MMSI: 224127820.

Date/timePositionNaut miles runAvg speedWind from/ knotsBaromVisibWave heightAir tempDewpointWater temp
2016-Jul-25 04:33N 36°10' W 005°24'0 0.0
2016-Jul-25 03:33N 36°10' W 005°24'0 0.0
2016-Jul-25 02:33N 36°10' W 005°24'2 1.8
2016-Jul-25 01:33N 36°09' W 005°25'1 0.4
2016-Jul-24 23:20N 36°08' W 005°26'0 0.0
2016-Jul-24 22:30N 36°08' W 005°26'0 0.0
2016-Jul-24 19:17N 36°08' W 005°26'0 0.0
2016-Jul-24 18:33N 36°08' W 005°26'0 0.0
2016-Jul-24 17:33N 36°08' W 005°26'0 0.0
2016-Jul-24 16:28N 36°08' W 005°26'0 0.0
2016-Jul-24 14:33N 36°08' W 005°26'0 0.0
2016-Jul-24 13:33N 36°08' W 005°26'0 0.0
2016-Jul-24 12:33N 36°08' W 005°26'0 0.0
2016-Jul-24 07:29N 36°08' W 005°26'0 0.0
2016-Jul-24 06:28N 36°08' W 005°26'0 0.0
2016-Jul-24 02:28N 36°08' W 005°26'0 0.0
2016-Jul-24 01:33N 36°08' W 005°26'0 0.0
2016-Jul-23 21:26N 36°08' W 005°26'0 0.0
2016-Jul-23 18:20N 36°08' W 005°26'1 0.3
2016-Jul-23 16:33N 36°08' W 005°25'0 0.1
2016-Jul-23 15:33N 36°08' W 005°25'0 0.0
2016-Jul-23 14:33N 36°08' W 005°25'0 0.0
2016-Jul-23 13:33N 36°08' W 005°25'0 0.0
2016-Jul-23 12:33N 36°08' W 005°25'0 0.0
2016-Jul-23 11:33N 36°08' W 005°25'0 0.0
2016-Jul-23 06:14N 36°08' W 005°25'1 0.4
2016-Jul-23 04:32N 36°08' W 005°26'0 0.0
2016-Jul-23 03:33N 36°08' W 005°26'0 0.0
2016-Jul-23 02:33N 36°08' W 005°26'0 0.0
2016-Jul-23 01:30N 36°08' W 005°26'0 0.0
2016-Jul-23 00:33N 36°08' W 005°26'0 0.0
2016-Jul-22 23:33N 36°08' W 005°26'0 0.0
2016-Jul-22 22:33N 36°08' W 005°26'0 0.0
2016-Jul-22 21:33N 36°08' W 005°26'1 0.6
2016-Jul-22 20:33N 36°08' W 005°26'0 0.3
2016-Jul-22 19:33N 36°08' W 005°26'1 0.1
2016-Jul-22 12:33N 36°09' W 005°26'1 1.0
2016-Jul-22 11:33N 36°09' W 005°25'0 0.0
2016-Jul-22 10:33N 36°09' W 005°25'0 0.0
2016-Jul-22 09:33N 36°09' W 005°25'0 0.0
2016-Jul-22 08:33N 36°09' W 005°25'0 0.0
2016-Jul-22 07:30N 36°09' W 005°25'1 0.1
2016-Jul-21 22:25N 36°08' W 005°26'0 0.0
2016-Jul-21 21:32N 36°08' W 005°26'0 0.0
2016-Jul-21 19:32N 36°08' W 005°26'1 0.8
2016-Jul-21 18:33N 36°08' W 005°25'0 0.0
2016-Jul-21 17:33N 36°08' W 005°25'0 0.0
2016-Jul-21 16:33N 36°08' W 005°25'0 0.0
2016-Jul-21 15:33N 36°08' W 005°25'1 0.8
2016-Jul-21 14:33N 36°08' W 005°26'0 0.0
2016-Jul-21 13:33N 36°08' W 005°26'3 2.5
2016-Jul-21 12:31N 36°06' W 005°25'0 0.0
2016-Jul-21 11:29N 36°06' W 005°25'0 0.0
2016-Jul-21 10:33N 36°06' W 005°25'0 0.0
2016-Jul-21 09:33N 36°06' W 005°25'0 0.1
2016-Jul-21 08:29N 36°06' W 005°25'3 2.8
2016-Jul-21 07:33N 36°08' W 005°25'1 0.1
2016-Jul-20 20:14N 36°09' W 005°26'0 0.2
2016-Jul-20 19:33N 36°08' W 005°26'3 2.6
2016-Jul-20 18:32N 36°10' W 005°23'0 0.0
2016-Jul-20 17:32N 36°10' W 005°23'2 2.2
2016-Jul-20 16:32N 36°10' W 005°26'0 0.0
2016-Jul-20 15:33N 36°10' W 005°26'0 0.0
2016-Jul-20 14:27N 36°10' W 005°26'1 0.1
2016-Jul-20 05:26N 36°08' W 005°26'0 0.0
2016-Jul-20 04:27N 36°08' W 005°26'0 0.2
2016-Jul-20 02:33N 36°09' W 005°25'1 0.8
2016-Jul-20 01:33N 36°08' W 005°25'0 0.1
2016-Jul-20 00:30N 36°08' W 005°25'0 0.0
2016-Jul-19 23:33N 36°08' W 005°25'0 0.0
2016-Jul-19 21:19N 36°08' W 005°25'1 1.5
2016-Jul-19 20:34N 36°09' W 005°26'0 0.0
2016-Jul-19 19:34N 36°09' W 005°26'0 0.1
2016-Jul-19 18:30N 36°09' W 005°26'3 1.3
2016-Jul-19 16:28N 36°10' W 005°23'3 1.4
2016-Jul-19 14:30N 36°09' W 005°26'0 0.0
2016-Jul-19 08:33N 36°08' W 005°26'1 0.0
2016-Jul-18 14:29N 36°09' W 005°26'1 0.1
2016-Jul-18 09:32N 36°08' W 005°26'0 0.0
2016-Jul-17 18:32N 36°08' W 005°26'0 0.0
2016-Jul-17 17:24N 36°08' W 005°26'0 0.0
2016-Jul-17 16:32N 36°08' W 005°26'0 0.0
2016-Jul-17 15:33N 36°08' W 005°26'1 0.7
2016-Jul-17 14:33N 36°08' W 005°25'0 0.0
2016-Jul-17 13:33N 36°08' W 005°25'0 0.0
2016-Jul-17 12:34N 36°08' W 005°25'0 0.0
2016-Jul-17 11:34N 36°08' W 005°25'1 0.2
2016-Jul-17 06:33N 36°09' W 005°26'0 0.1
2016-Jul-17 04:04N 36°08' W 005°26'0 0.0
2016-Jul-17 03:30N 36°08' W 005°26'0 0.0
2016-Jul-17 02:33N 36°08' W 005°26'0 0.0
2016-Jul-17 01:29N 36°08' W 005°26'1 0.4
2016-Jul-16 22:08N 36°10' W 005°25'2 0.3
2016-Jul-16 16:24N 36°10' W 005°24'2 2.0
2016-Jul-16 15:26N 36°10' W 005°26'0 0.0
2016-Jul-16 14:33N 36°10' W 005°26'0 0.0
2016-Jul-16 13:34N 36°10' W 005°26'0 0.0
2016-Jul-16 12:33N 36°10' W 005°26'0 0.0
2016-Jul-16 11:30N 36°10' W 005°26'0 0.2
2016-Jul-16 10:33N 36°09' W 005°26'1 0.7
2016-Jul-16 08:30N 36°08' W 005°26'0 0.1
2016-Jul-16 04:32N 36°08' W 005°26'0 0.0
2016-Jul-16 03:26N 36°08' W 005°26'0 0.0
2016-Jul-16 02:32N 36°08' W 005°26'0 0.0
2016-Jul-16 01:23N 36°08' W 005°26'0 0.0
2016-Jul-16 00:33N 36°08' W 005°26'0 0.0
2016-Jul-15 23:33N 36°08' W 005°26'0 0.0
2016-Jul-15 22:33N 36°08' W 005°26'0 0.0
2016-Jul-15 21:31N 36°08' W 005°26'0 0.0
2016-Jul-15 20:33N 36°08' W 005°26'0 0.0
2016-Jul-15 19:33N 36°08' W 005°26'0 0.1
2016-Jul-15 18:33N 36°08' W 005°26'0 0.1
2016-Jul-15 17:33N 36°08' W 005°26'0 0.0
2016-Jul-15 16:33N 36°08' W 005°26'0 0.0
2016-Jul-15 06:33N 36°08' W 005°26'  
Track history (hours):
 
Tides and Currents Weather Stations Pressure Air Temp Water Temp Dewpoint Dewpoint Depression Visibility Wind Speed Wind Dir Waves Ship Positions

Bahia Uno

Last reported at 2016-Jul-25 04:33 UTC. Time now 2016-Jul-25 08:08 UTC.
Position N 36°10' W 005°24'.

Length 70 m; draft 5.5 m.

Type: Ship. MMSI: 224127820.

Date/timePositionNaut miles runAvg speedWind from/ knotsBaromVisibWave heightAir tempDewpointWater temp
2016-Jul-25 04:33N 36°10' W 005°24'0 0.0
2016-Jul-25 03:33N 36°10' W 005°24'0 0.0
2016-Jul-25 02:33N 36°10' W 005°24'2 1.8
2016-Jul-25 01:33N 36°09' W 005°25'1 0.4
2016-Jul-24 23:20N 36°08' W 005°26'0 0.0
2016-Jul-24 22:30N 36°08' W 005°26'0 0.0
2016-Jul-24 19:17N 36°08' W 005°26'0 0.0
2016-Jul-24 18:33N 36°08' W 005°26'0 0.0
2016-Jul-24 17:33N 36°08' W 005°26'0 0.0
2016-Jul-24 16:28N 36°08' W 005°26'0 0.0
2016-Jul-24 14:33N 36°08' W 005°26'0 0.0
2016-Jul-24 13:33N 36°08' W 005°26'0 0.0
2016-Jul-24 12:33N 36°08' W 005°26'0 0.0
2016-Jul-24 07:29N 36°08' W 005°26'0 0.0
2016-Jul-24 06:28N 36°08' W 005°26'0 0.0
2016-Jul-24 02:28N 36°08' W 005°26'0 0.0
2016-Jul-24 01:33N 36°08' W 005°26'0 0.0
2016-Jul-23 21:26N 36°08' W 005°26'0 0.0
2016-Jul-23 18:20N 36°08' W 005°26'1 0.3
2016-Jul-23 16:33N 36°08' W 005°25'0 0.1
2016-Jul-23 15:33N 36°08' W 005°25'0 0.0
2016-Jul-23 14:33N 36°08' W 005°25'0 0.0
2016-Jul-23 13:33N 36°08' W 005°25'0 0.0
2016-Jul-23 12:33N 36°08' W 005°25'0 0.0
2016-Jul-23 11:33N 36°08' W 005°25'0 0.0
2016-Jul-23 06:14N 36°08' W 005°25'1 0.4
2016-Jul-23 04:32N 36°08' W 005°26'0 0.0
2016-Jul-23 03:33N 36°08' W 005°26'0 0.0
2016-Jul-23 02:33N 36°08' W 005°26'0 0.0
2016-Jul-23 01:30N 36°08' W 005°26'0 0.0
2016-Jul-23 00:33N 36°08' W 005°26'0 0.0
2016-Jul-22 23:33N 36°08' W 005°26'0 0.0
2016-Jul-22 22:33N 36°08' W 005°26'0 0.0
2016-Jul-22 21:33N 36°08' W 005°26'1 0.6
2016-Jul-22 20:33N 36°08' W 005°26'0 0.3
2016-Jul-22 19:33N 36°08' W 005°26'1 0.1
2016-Jul-22 12:33N 36°09' W 005°26'1 1.0
2016-Jul-22 11:33N 36°09' W 005°25'0 0.0
2016-Jul-22 10:33N 36°09' W 005°25'0 0.0
2016-Jul-22 09:33N 36°09' W 005°25'0 0.0
2016-Jul-22 08:33N 36°09' W 005°25'0 0.0
2016-Jul-22 07:30N 36°09' W 005°25'1 0.1
2016-Jul-21 22:25N 36°08' W 005°26'0 0.0
2016-Jul-21 21:32N 36°08' W 005°26'0 0.0
2016-Jul-21 19:32N 36°08' W 005°26'1 0.8
2016-Jul-21 18:33N 36°08' W 005°25'0 0.0
2016-Jul-21 17:33N 36°08' W 005°25'0 0.0
2016-Jul-21 16:33N 36°08' W 005°25'0 0.0
2016-Jul-21 15:33N 36°08' W 005°25'1 0.8
2016-Jul-21 14:33N 36°08' W 005°26'0 0.0
2016-Jul-21 13:33N 36°08' W 005°26'3 2.5
2016-Jul-21 12:31N 36°06' W 005°25'0 0.0
2016-Jul-21 11:29N 36°06' W 005°25'0 0.0
2016-Jul-21 10:33N 36°06' W 005°25'0 0.0
2016-Jul-21 09:33N 36°06' W 005°25'0 0.1
2016-Jul-21 08:29N 36°06' W 005°25'3 2.8
2016-Jul-21 07:33N 36°08' W 005°25'1 0.1
2016-Jul-20 20:14N 36°09' W 005°26'0 0.2
2016-Jul-20 19:33N 36°08' W 005°26'3 2.6
2016-Jul-20 18:32N 36°10' W 005°23'0 0.0
2016-Jul-20 17:32N 36°10' W 005°23'2 2.2
2016-Jul-20 16:32N 36°10' W 005°26'0 0.0
2016-Jul-20 15:33N 36°10' W 005°26'0 0.0
2016-Jul-20 14:27N 36°10' W 005°26'1 0.1
2016-Jul-20 05:26N 36°08' W 005°26'0 0.0
2016-Jul-20 04:27N 36°08' W 005°26'0 0.2
2016-Jul-20 02:33N 36°09' W 005°25'1 0.8
2016-Jul-20 01:33N 36°08' W 005°25'0 0.1
2016-Jul-20 00:30N 36°08' W 005°25'0 0.0
2016-Jul-19 23:33N 36°08' W 005°25'0 0.0
2016-Jul-19 21:19N 36°08' W 005°25'1 1.5
2016-Jul-19 20:34N 36°09' W 005°26'0 0.0
2016-Jul-19 19:34N 36°09' W 005°26'0 0.1
2016-Jul-19 18:30N 36°09' W 005°26'3 1.3
2016-Jul-19 16:28N 36°10' W 005°23'3 1.4
2016-Jul-19 14:30N 36°09' W 005°26'0 0.0
2016-Jul-19 08:33N 36°08' W 005°26'1 0.0
2016-Jul-18 14:29N 36°09' W 005°26'1 0.1
2016-Jul-18 09:32N 36°08' W 005°26'0 0.0
2016-Jul-17 18:32N 36°08' W 005°26'0 0.0
2016-Jul-17 17:24N 36°08' W 005°26'0 0.0
2016-Jul-17 16:32N 36°08' W 005°26'0 0.0
2016-Jul-17 15:33N 36°08' W 005°26'1 0.7
2016-Jul-17 14:33N 36°08' W 005°25'0 0.0
2016-Jul-17 13:33N 36°08' W 005°25'0 0.0
2016-Jul-17 12:34N 36°08' W 005°25'0 0.0
2016-Jul-17 11:34N 36°08' W 005°25'1 0.2
2016-Jul-17 06:33N 36°09' W 005°26'0 0.1
2016-Jul-17 04:04N 36°08' W 005°26'0 0.0
2016-Jul-17 03:30N 36°08' W 005°26'0 0.0
2016-Jul-17 02:33N 36°08' W 005°26'0 0.0
2016-Jul-17 01:29N 36°08' W 005°26'1 0.4
2016-Jul-16 22:08N 36°10' W 005°25'2 0.3
2016-Jul-16 16:24N 36°10' W 005°24'2 2.0
2016-Jul-16 15:26N 36°10' W 005°26'0 0.0
2016-Jul-16 14:33N 36°10' W 005°26'0 0.0
2016-Jul-16 13:34N 36°10' W 005°26'0 0.0
2016-Jul-16 12:33N 36°10' W 005°26'0 0.0
2016-Jul-16 11:30N 36°10' W 005°26'0 0.2
2016-Jul-16 10:33N 36°09' W 005°26'1 0.7
2016-Jul-16 08:30N 36°08' W 005°26'0 0.1
2016-Jul-16 04:32N 36°08' W 005°26'0 0.0
2016-Jul-16 03:26N 36°08' W 005°26'0 0.0
2016-Jul-16 02:32N 36°08' W 005°26'0 0.0
2016-Jul-16 01:23N 36°08' W 005°26'0 0.0
2016-Jul-16 00:33N 36°08' W 005°26'0 0.0
2016-Jul-15 23:33N 36°08' W 005°26'0 0.0
2016-Jul-15 22:33N 36°08' W 005°26'0 0.0
2016-Jul-15 21:31N 36°08' W 005°26'0 0.0
2016-Jul-15 20:33N 36°08' W 005°26'0 0.0
2016-Jul-15 19:33N 36°08' W 005°26'0 0.1
2016-Jul-15 18:33N 36°08' W 005°26'0 0.1
2016-Jul-15 17:33N 36°08' W 005°26'0 0.0
2016-Jul-15 16:33N 36°08' W 005°26'0 0.0
2016-Jul-15 06:33N 36°08' W 005°26'  

Dump ship's entire track history